Terminal Aerodrome Forecast
Issued by NWS Kansas City/Pleasant Hill, MO

Home | Current Version | Previous Version | Text Only | Print | Product List | Glossary On
Versions: 1 2 3 4 5 6 7 8 9 10 11 12 13 14
000
FTUS43 KEAX 312300
TAFMCI
TAF
KMCI 312331Z 0100/0124 15010KT 4SM -RASN BR OVC007
     FM011200 33018G28KT 1 1/2SM -SN OVC006
     FM011800 34020G30KT 5SM -SN OVC020=

USA.gov is the U.S. government's official web portal to all federal, state and local government web resources and services.